sensor_id;sensor_type;location;lat;lon;timestamp;temperature;humidity
26063;DHT22;13837;48.562;12.108;2022-11-25T00:04:47;1.10;99.90
26063;DHT22;13837;48.562;12.108;2022-11-25T00:07:13;1.10;99.90
26063;DHT22;13837;48.562;12.108;2022-11-25T00:09:40;1.10;99.90
26063;DHT22;13837;48.562;12.108;2022-11-25T00:12:06;1.00;99.90
26063;DHT22;13837;48.562;12.108;2022-11-25T00:14:32;1.00;99.90
26063;DHT22;13837;48.562;12.108;2022-11-25T00:16:58;0.90;99.90
26063;DHT22;13837;48.562;12.108;2022-11-25T00:19:49;0.90;99.90
26063;DHT22;13837;48.562;12.108;2022-11-25T00:36:05;0.60;99.90
26063;DHT22;13837;48.562;12.108;2022-11-25T00:38:32;0.50;99.90
26063;DHT22;13837;48.562;12.108;2022-11-25T00:41:06;0.40;99.90
26063;DHT22;13837;48.562;12.108;2022-11-25T00:43:53;0.40;99.90
26063;DHT22;13837;48.562;12.108;2022-11-25T00:46:37;0.40;99.90
26063;DHT22;13837;48.562;12.108;2022-11-25T00:49:05;0.40;99.90
26063;DHT22;13837;48.562;12.108;2022-11-25T00:51:32;0.40;99.90
26063;DHT22;13837;48.562;12.108;2022-11-25T00:53:57;0.40;99.90
26063;DHT22;13837;48.562;12.108;2022-11-25T00:56:27;0.40;99.90
26063;DHT22;13837;48.562;12.108;2022-11-25T00:58:55;0.50;99.90
26063;DHT22;13837;48.562;12.108;2022-11-25T01:12:35;0.30;99.90
26063;DHT22;13837;48.562;12.108;2022-11-25T01:15:03;0.20;99.90
26063;DHT22;13837;48.562;12.108;2022-11-25T01:17:33;0.20;99.90
26063;DHT22;13837;48.562;12.108;2022-11-25T01:19:59;0.20;99.90
26063;DHT22;13837;48.562;12.108;2022-11-25T01:22:28;0.10;99.90
26063;DHT22;13837;48.562;12.108;2022-11-25T01:24:56;0.30;99.90
26063;DHT22;13837;48.562;12.108;2022-11-25T01:27:22;0.20;99.90
26063;DHT22;13837;48.562;12.108;2022-11-25T01:29:48;0.20;99.90
26063;DHT22;13837;48.562;12.108;2022-11-25T01:32:14;0.10;99.90
26063;DHT22;13837;48.562;12.108;2022-11-25T01:34:41;0.00;99.90
26063;DHT22;13837;48.562;12.108;2022-11-25T01:37:30;0.10;99.90
26063;DHT22;13837;48.562;12.108;2022-11-25T01:39:55;0.10;99.90
26063;DHT22;13837;48.562;12.108;2022-11-25T01:42:25;0.10;99.90
26063;DHT22;13837;48.562;12.108;2022-11-25T01:45:34;0.10;99.90
26063;DHT22;13837;48.562;12.108;2022-11-25T01:48:14;0.10;99.90
26063;DHT22;13837;48.562;12.108;2022-11-25T01:50:41;0.10;99.90
26063;DHT22;13837;48.562;12.108;2022-11-25T02:29:24;0.00;99.90
26063;DHT22;13837;48.562;12.108;2022-11-25T02:31:55;-0.20;99.90
26063;DHT22;13837;48.562;12.108;2022-11-25T02:34:23;-0.20;99.90
26063;DHT22;13837;48.562;12.108;2022-11-25T02:37:59;-0.20;99.90
26063;DHT22;13837;48.562;12.108;2022-11-25T02:40:26;-0.10;99.90
26063;DHT22;13837;48.562;12.108;2022-11-25T02:47:01;-0.10;99.90
26063;DHT22;13837;48.562;12.108;2022-11-25T02:50:25;-0.20;99.90
26063;DHT22;13837;48.562;12.108;2022-11-25T02:53:07;-0.10;99.90
26063;DHT22;13837;48.562;12.108;2022-11-25T02:56:28;-0.20;99.90
26063;DHT22;13837;48.562;12.108;2022-11-25T03:00:10;-0.10;99.90
26063;DHT22;13837;48.562;12.108;2022-11-25T03:09:07;-0.10;99.90
26063;DHT22;13837;48.562;12.108;2022-11-25T03:11:37;-0.20;99.90
26063;DHT22;13837;48.562;12.108;2022-11-25T03:14:52;-0.20;99.90
26063;DHT22;13837;48.562;12.108;2022-11-25T03:18:14;-0.10;99.90
26063;DHT22;13837;48.562;12.108;2022-11-25T03:21:53;0.00;99.90
26063;DHT22;13837;48.562;12.108;2022-11-25T03:28:51;0.00;99.90
26063;DHT22;13837;48.562;12.108;2022-11-25T03:35:16;0.00;99.90
26063;DHT22;13837;48.562;12.108;2022-11-25T03:38:58;0.00;99.90
26063;DHT22;13837;48.562;12.108;2022-11-25T03:42:58;0.10;99.90
26063;DHT22;13837;48.562;12.108;2022-11-25T03:46:38;0.10;99.90
26063;DHT22;13837;48.562;12.108;2022-11-25T03:57:20;0.10;99.90
26063;DHT22;13837;48.562;12.108;2022-11-25T04:00:00;0.20;99.90
26063;DHT22;13837;48.562;12.108;2022-11-25T04:06:40;0.10;99.90
26063;DHT22;13837;48.562;12.108;2022-11-25T04:09:12;0.10;99.90
26063;DHT22;13837;48.562;12.108;2022-11-25T04:52:15;-0.30;99.90
26063;DHT22;13837;48.562;12.108;2022-11-25T04:54:52;-0.30;99.90
26063;DHT22;13837;48.562;12.108;2022-11-25T04:57:18;-0.30;99.90
26063;DHT22;13837;48.562;12.108;2022-11-25T05:00:38;-0.20;99.90
26063;DHT22;13837;48.562;12.108;2022-11-25T05:52:52;-0.30;99.90
26063;DHT22;13837;48.562;12.108;2022-11-25T05:55:20;-0.40;99.90
26063;DHT22;13837;48.562;12.108;2022-11-25T05:58:58;-0.40;99.90
26063;DHT22;13837;48.562;12.108;2022-11-25T06:02:16;-0.50;99.90
26063;DHT22;13837;48.562;12.108;2022-11-25T06:05:26;-0.60;99.90
26063;DHT22;13837;48.562;12.108;2022-11-25T06:08:01;-0.60;99.90
26063;DHT22;13837;48.562;12.108;2022-11-25T06:10:57;-0.70;99.90
26063;DHT22;13837;48.562;12.108;2022-11-25T06:17:56;-0.50;99.90
26063;DHT22;13837;48.562;12.108;2022-11-25T06:20:24;-0.40;99.90
26063;DHT22;13837;48.562;12.108;2022-11-25T06:22:51;0.30;99.90
26063;DHT22;13837;48.562;12.108;2022-11-25T06:25:23;1.20;99.90
26063;DHT22;13837;48.562;12.108;2022-11-25T06:27:50;1.80;99.90
26063;DHT22;13837;48.562;12.108;2022-11-25T06:30:16;2.00;99.90
26063;DHT22;13837;48.562;12.108;2022-11-25T06:32:49;1.90;99.90
26063;DHT22;13837;48.562;12.108;2022-11-25T06:35:20;1.80;99.90
26063;DHT22;13837;48.562;12.108;2022-11-25T06:37:53;1.80;99.90
26063;DHT22;13837;48.562;12.108;2022-11-25T06:40:19;1.90;99.90
26063;DHT22;13837;48.562;12.108;2022-11-25T06:42:44;1.90;99.90
26063;DHT22;13837;48.562;12.108;2022-11-25T06:45:10;1.70;99.90
26063;DHT22;13837;48.562;12.108;2022-11-25T06:47:36;2.00;99.90
26063;DHT22;13837;48.562;12.108;2022-11-25T06:50:02;1.90;99.90
26063;DHT22;13837;48.562;12.108;2022-11-25T06:52:30;1.40;99.90
26063;DHT22;13837;48.562;12.108;2022-11-25T06:54:56;1.00;99.90
26063;DHT22;13837;48.562;12.108;2022-11-25T06:57:21;0.70;99.90
26063;DHT22;13837;48.562;12.108;2022-11-25T06:59:47;0.40;99.90
26063;DHT22;13837;48.562;12.108;2022-11-25T07:02:13;0.20;99.90
26063;DHT22;13837;48.562;12.108;2022-11-25T07:04:42;0.10;99.90
26063;DHT22;13837;48.562;12.108;2022-11-25T07:07:09;0.10;99.90
26063;DHT22;13837;48.562;12.108;2022-11-25T07:09:35;-0.10;99.90
26063;DHT22;13837;48.562;12.108;2022-11-25T07:12:01;-0.20;99.90
26063;DHT22;13837;48.562;12.108;2022-11-25T07:14:28;-0.20;99.90
26063;DHT22;13837;48.562;12.108;2022-11-25T07:16:54;-0.30;99.90
26063;DHT22;13837;48.562;12.108;2022-11-25T07:19:24;-0.20;99.90
26063;DHT22;13837;48.562;12.108;2022-11-25T07:21:50;-0.10;99.90
26063;DHT22;13837;48.562;12.108;2022-11-25T07:24:41;0.00;99.90
26063;DHT22;13837;48.562;12.108;2022-11-25T07:27:06;0.10;99.90
26063;DHT22;13837;48.562;12.108;2022-11-25T07:29:36;0.40;99.90
26063;DHT22;13837;48.562;12.108;2022-11-25T07:32:07;0.50;99.90
26063;DHT22;13837;48.562;12.108;2022-11-25T07:34:35;0.60;99.90
26063;DHT22;13837;48.562;12.108;2022-11-25T07:41:27;0.70;99.90
26063;DHT22;13837;48.562;12.108;2022-11-25T07:44:18;0.60;99.90
26063;DHT22;13837;48.562;12.108;2022-11-25T07:46:59;0.90;99.90
26063;DHT22;13837;48.562;12.108;2022-11-25T07:49:33;1.00;99.90
26063;DHT22;13837;48.562;12.108;2022-11-25T07:57:39;1.10;99.90
26063;DHT22;13837;48.562;12.108;2022-11-25T08:00:37;1.10;99.90
26063;DHT22;13837;48.562;12.108;2022-11-25T08:03:48;1.10;99.90
26063;DHT22;13837;48.562;12.108;2022-11-25T08:08:07;1.10;99.90
26063;DHT22;13837;48.562;12.108;2022-11-25T08:14:57;1.10;99.90
26063;DHT22;13837;48.562;12.108;2022-11-25T08:17:39;1.00;99.90
26063;DHT22;13837;48.562;12.108;2022-11-25T08:20:08;1.00;99.90
26063;DHT22;13837;48.562;12.108;2022-11-25T08:22:36;1.10;99.90
26063;DHT22;13837;48.562;12.108;2022-11-25T08:25:14;0.90;99.90
26063;DHT22;13837;48.562;12.108;2022-11-25T08:27:43;0.80;99.90
26063;DHT22;13837;48.562;12.108;2022-11-25T08:30:36;0.90;99.90
26063;DHT22;13837;48.562;12.108;2022-11-25T08:42:02;1.20;99.90
26063;DHT22;13837;48.562;12.108;2022-11-25T08:44:31;1.30;99.90
26063;DHT22;13837;48.562;12.108;2022-11-25T08:51:27;1.20;99.90
26063;DHT22;13837;48.562;12.108;2022-11-25T08:54:31;1.20;99.90
26063;DHT22;13837;48.562;12.108;2022-11-25T09:20:31;5.80;99.90
26063;DHT22;13837;48.562;12.108;2022-11-25T09:23:00;6.10;99.90
26063;DHT22;13837;48.562;12.108;2022-11-25T09:25:51;5.80;99.90
26063;DHT22;13837;48.562;12.108;2022-11-25T09:29:19;5.30;99.90
26063;DHT22;13837;48.562;12.108;2022-11-25T09:32:57;4.80;99.90
26063;DHT22;13837;48.562;12.108;2022-11-25T09:38:39;4.10;99.90
26063;DHT22;13837;48.562;12.108;2022-11-25T09:49:24;3.80;99.90
26063;DHT22;13837;48.562;12.108;2022-11-25T10:14:45;3.60;99.90
26063;DHT22;13837;48.562;12.108;2022-11-25T10:22:55;3.70;99.90
26063;DHT22;13837;48.562;12.108;2022-11-25T10:25:24;3.90;99.90
26063;DHT22;13837;48.562;12.108;2022-11-25T10:34:20;4.50;99.90
26063;DHT22;13837;48.562;12.108;2022-11-25T10:36:55;4.60;99.90
26063;DHT22;13837;48.562;12.108;2022-11-25T10:39:28;4.80;99.90
26063;DHT22;13837;48.562;12.108;2022-11-25T10:48:44;5.20;99.90
26063;DHT22;13837;48.562;12.108;2022-11-25T11:06:39;7.90;99.90
26063;DHT22;13837;48.562;12.108;2022-11-25T11:10:22;8.40;99.90
26063;DHT22;13837;48.562;12.108;2022-11-25T11:19:02;10.20;99.90
26063;DHT22;13837;48.562;12.108;2022-11-25T11:29:24;11.50;99.90
26063;DHT22;13837;48.562;12.108;2022-11-25T11:32:53;10.60;99.90
26063;DHT22;13837;48.562;12.108;2022-11-25T12:56:36;8.80;99.90
26063;DHT22;13837;48.562;12.108;2022-11-25T13:34:35;8.70;99.90
26063;DHT22;13837;48.562;12.108;2022-11-25T13:42:02;8.60;99.90
26063;DHT22;13837;48.562;12.108;2022-11-25T14:33:58;7.60;99.90
26063;DHT22;13837;48.562;12.108;2022-11-25T14:36:38;7.60;99.90
26063;DHT22;13837;48.562;12.108;2022-11-25T14:39:29;7.50;99.90
26063;DHT22;13837;48.562;12.108;2022-11-25T14:42:14;7.40;99.90
26063;DHT22;13837;48.562;12.108;2022-11-25T14:44:45;7.30;99.90
26063;DHT22;13837;48.562;12.108;2022-11-25T14:47:27;7.30;99.90
26063;DHT22;13837;48.562;12.108;2022-11-25T14:50:18;7.30;99.90
26063;DHT22;13837;48.562;12.108;2022-11-25T15:06:50;7.20;99.90
26063;DHT22;13837;48.562;12.108;2022-11-25T15:10:01;7.20;99.90
26063;DHT22;13837;48.562;12.108;2022-11-25T15:13:57;7.10;99.90
26063;DHT22;13837;48.562;12.108;2022-11-25T15:21:01;7.20;99.90
26063;DHT22;13837;48.562;12.108;2022-11-25T15:23:42;7.10;99.90
26063;DHT22;13837;48.562;12.108;2022-11-25T15:26:31;7.00;99.90
26063;DHT22;13837;48.562;12.108;2022-11-25T15:29:22;7.00;99.90
26063;DHT22;13837;48.562;12.108;2022-11-25T15:32:00;6.80;99.90
26063;DHT22;13837;48.562;12.108;2022-11-25T15:34:27;6.80;99.90
26063;DHT22;13837;48.562;12.108;2022-11-25T15:37:00;6.70;99.90
26063;DHT22;13837;48.562;12.108;2022-11-25T15:39:34;6.70;99.90
26063;DHT22;13837;48.562;12.108;2022-11-25T15:42:07;6.60;99.90
26063;DHT22;13837;48.562;12.108;2022-11-25T15:44:57;6.70;99.90
26063;DHT22;13837;48.562;12.108;2022-11-25T15:47:35;6.60;99.90
26063;DHT22;13837;48.562;12.108;2022-11-25T16:15:02;6.50;99.90
26063;DHT22;13837;48.562;12.108;2022-11-25T16:17:39;6.50;99.90
26063;DHT22;13837;48.562;12.108;2022-11-25T16:20:16;6.40;99.90
26063;DHT22;13837;48.562;12.108;2022-11-25T16:22:52;6.40;99.90
26063;DHT22;13837;48.562;12.108;2022-11-25T16:25:28;6.40;99.90
26063;DHT22;13837;48.562;12.108;2022-11-25T16:28:02;6.40;99.90
26063;DHT22;13837;48.562;12.108;2022-11-25T16:30:47;6.30;99.90
26063;DHT22;13837;48.562;12.108;2022-11-25T16:33:28;6.30;99.90
26063;DHT22;13837;48.562;12.108;2022-11-25T16:36:10;6.40;99.90
26063;DHT22;13837;48.562;12.108;2022-11-25T16:39:05;6.30;99.90
26063;DHT22;13837;48.562;12.108;2022-11-25T16:42:05;6.40;99.90
26063;DHT22;13837;48.562;12.108;2022-11-25T16:44:39;6.40;99.90
26063;DHT22;13837;48.562;12.108;2022-11-25T16:47:13;6.30;99.90
26063;DHT22;13837;48.562;12.108;2022-11-25T16:49:58;6.30;99.90
26063;DHT22;13837;48.562;12.108;2022-11-25T16:52:29;6.30;99.90
26063;DHT22;13837;48.562;12.108;2022-11-25T16:54:58;6.30;99.90
26063;DHT22;13837;48.562;12.108;2022-11-25T16:57:38;6.30;99.90
26063;DHT22;13837;48.562;12.108;2022-11-25T17:00:31;6.40;99.90
26063;DHT22;13837;48.562;12.108;2022-11-25T17:02:59;6.30;99.90
26063;DHT22;13837;48.562;12.108;2022-11-25T17:05:33;6.30;99.90
26063;DHT22;13837;48.562;12.108;2022-11-25T17:08:04;6.30;99.90
26063;DHT22;13837;48.562;12.108;2022-11-25T17:10:31;6.10;99.90
26063;DHT22;13837;48.562;12.108;2022-11-25T17:12:57;6.10;99.90
26063;DHT22;13837;48.562;12.108;2022-11-25T17:15:33;6.10;99.90
26063;DHT22;13837;48.562;12.108;2022-11-25T17:18:01;6.10;99.90
26063;DHT22;13837;48.562;12.108;2022-11-25T17:20:32;6.10;99.90
26063;DHT22;13837;48.562;12.108;2022-11-25T17:23:01;6.10;99.90
26063;DHT22;13837;48.562;12.108;2022-11-25T17:25:32;6.10;99.90
26063;DHT22;13837;48.562;12.108;2022-11-25T17:28:05;6.10;99.90
26063;DHT22;13837;48.562;12.108;2022-11-25T17:30:38;6.20;99.90
26063;DHT22;13837;48.562;12.108;2022-11-25T17:33:32;6.20;99.90
26063;DHT22;13837;48.562;12.108;2022-11-25T17:36:02;6.20;99.90
26063;DHT22;13837;48.562;12.108;2022-11-25T17:38:39;6.30;99.90
26063;DHT22;13837;48.562;12.108;2022-11-25T17:41:14;6.40;99.90
26063;DHT22;13837;48.562;12.108;2022-11-25T17:43:47;6.40;99.90
26063;DHT22;13837;48.562;12.108;2022-11-25T17:46:27;6.40;99.90
26063;DHT22;13837;48.562;12.108;2022-11-25T17:48:55;6.40;99.90
26063;DHT22;13837;48.562;12.108;2022-11-25T17:51:27;6.40;99.90
26063;DHT22;13837;48.562;12.108;2022-11-25T17:53:56;6.40;99.90
26063;DHT22;13837;48.562;12.108;2022-11-25T17:56:27;6.30;99.90
26063;DHT22;13837;48.562;12.108;2022-11-25T17:59:13;6.30;99.90
26063;DHT22;13837;48.562;12.108;2022-11-25T18:01:43;6.30;99.90
26063;DHT22;13837;48.562;12.108;2022-11-25T18:04:20;6.20;99.90
26063;DHT22;13837;48.562;12.108;2022-11-25T18:07:00;6.20;99.90
26063;DHT22;13837;48.562;12.108;2022-11-25T18:09:29;6.20;99.90
26063;DHT22;13837;48.562;12.108;2022-11-25T18:12:23;6.10;99.90
26063;DHT22;13837;48.562;12.108;2022-11-25T18:15:02;6.10;99.90
26063;DHT22;13837;48.562;12.108;2022-11-25T18:17:40;6.10;99.90
26063;DHT22;13837;48.562;12.108;2022-11-25T18:20:23;6.20;99.90
26063;DHT22;13837;48.562;12.108;2022-11-25T18:29:28;6.20;99.90
26063;DHT22;13837;48.562;12.108;2022-11-25T18:40:36;6.30;99.90
26063;DHT22;13837;48.562;12.108;2022-11-25T18:43:05;6.30;99.90
26063;DHT22;13837;48.562;12.108;2022-11-25T18:45:43;6.30;99.90
26063;DHT22;13837;48.562;12.108;2022-11-25T18:48:17;6.30;99.90
26063;DHT22;13837;48.562;12.108;2022-11-25T18:51:02;6.30;99.90
26063;DHT22;13837;48.562;12.108;2022-11-25T18:53:47;6.30;99.90
26063;DHT22;13837;48.562;12.108;2022-11-25T18:56:15;6.30;99.90
26063;DHT22;13837;48.562;12.108;2022-11-25T18:59:03;6.40;99.90
26063;DHT22;13837;48.562;12.108;2022-11-25T19:01:35;6.40;99.90
26063;DHT22;13837;48.562;12.108;2022-11-25T19:04:04;6.40;99.90
26063;DHT22;13837;48.562;12.108;2022-11-25T19:06:36;6.30;99.90
26063;DHT22;13837;48.562;12.108;2022-11-25T19:09:04;6.30;99.90
26063;DHT22;13837;48.562;12.108;2022-11-25T19:11:35;6.30;99.90
26063;DHT22;13837;48.562;12.108;2022-11-25T19:14:41;6.20;99.90
26063;DHT22;13837;48.562;12.108;2022-11-25T19:17:05;6.10;99.90
26063;DHT22;13837;48.562;12.108;2022-11-25T19:19:37;6.00;99.90
26063;DHT22;13837;48.562;12.108;2022-11-25T19:22:24;6.10;99.90
26063;DHT22;13837;48.562;12.108;2022-11-25T19:24:54;6.00;99.90
26063;DHT22;13837;48.562;12.108;2022-11-25T19:27:22;6.00;99.90
26063;DHT22;13837;48.562;12.108;2022-11-25T19:29:52;5.90;99.90
26063;DHT22;13837;48.562;12.108;2022-11-25T19:32:28;5.90;99.90
26063;DHT22;13837;48.562;12.108;2022-11-25T19:35:04;5.80;99.90
26063;DHT22;13837;48.562;12.108;2022-11-25T19:37:47;5.80;99.90
26063;DHT22;13837;48.562;12.108;2022-11-25T19:40:38;5.80;99.90
26063;DHT22;13837;48.562;12.108;2022-11-25T19:43:07;5.80;99.90
26063;DHT22;13837;48.562;12.108;2022-11-25T19:45:39;5.80;99.90
26063;DHT22;13837;48.562;12.108;2022-11-25T19:48:09;5.80;99.90
26063;DHT22;13837;48.562;12.108;2022-11-25T19:50:53;5.80;99.90
26063;DHT22;13837;48.562;12.108;2022-11-25T19:53:40;5.80;99.90
26063;DHT22;13837;48.562;12.108;2022-11-25T19:56:16;5.90;99.90
26063;DHT22;13837;48.562;12.108;2022-11-25T19:58:52;5.90;99.90
26063;DHT22;13837;48.562;12.108;2022-11-25T20:01:42;5.80;99.90
26063;DHT22;13837;48.562;12.108;2022-11-25T20:04:19;5.80;99.90
26063;DHT22;13837;48.562;12.108;2022-11-25T20:06:47;5.80;99.90
26063;DHT22;13837;48.562;12.108;2022-11-25T20:09:22;5.80;99.90
26063;DHT22;13837;48.562;12.108;2022-11-25T20:11:56;5.90;99.90
26063;DHT22;13837;48.562;12.108;2022-11-25T20:14:28;5.90;99.90
26063;DHT22;13837;48.562;12.108;2022-11-25T20:17:09;5.80;99.90
26063;DHT22;13837;48.562;12.108;2022-11-25T20:19:42;5.80;99.90
26063;DHT22;13837;48.562;12.108;2022-11-25T20:22:14;5.80;99.90
26063;DHT22;13837;48.562;12.108;2022-11-25T20:24:49;5.90;99.90
26063;DHT22;13837;48.562;12.108;2022-11-25T20:27:26;6.00;99.90
26063;DHT22;13837;48.562;12.108;2022-11-25T20:30:25;5.90;99.90
26063;DHT22;13837;48.562;12.108;2022-11-25T20:33:00;6.00;99.90
26063;DHT22;13837;48.562;12.108;2022-11-25T20:35:33;5.90;99.90
26063;DHT22;13837;48.562;12.108;2022-11-25T20:38:29;5.90;99.90
26063;DHT22;13837;48.562;12.108;2022-11-25T20:41:01;5.90;99.90
26063;DHT22;13837;48.562;12.108;2022-11-25T20:43:34;5.80;99.90
26063;DHT22;13837;48.562;12.108;2022-11-25T20:46:18;5.80;99.90
26063;DHT22;13837;48.562;12.108;2022-11-25T20:48:57;5.90;99.90
26063;DHT22;13837;48.562;12.108;2022-11-25T20:51:28;5.80;99.90
26063;DHT22;13837;48.562;12.108;2022-11-25T20:54:05;5.90;99.90
26063;DHT22;13837;48.562;12.108;2022-11-25T20:56:31;5.90;99.90
26063;DHT22;13837;48.562;12.108;2022-11-25T20:59:12;5.80;99.90
26063;DHT22;13837;48.562;12.108;2022-11-25T21:01:45;5.70;99.90
26063;DHT22;13837;48.562;12.108;2022-11-25T21:04:16;5.70;99.90
26063;DHT22;13837;48.562;12.108;2022-11-25T21:07:04;5.70;99.90
26063;DHT22;13837;48.562;12.108;2022-11-25T21:09:36;5.70;99.90
26063;DHT22;13837;48.562;12.108;2022-11-25T21:12:10;5.60;99.90
26063;DHT22;13837;48.562;12.108;2022-11-25T21:14:40;5.80;99.90
26063;DHT22;13837;48.562;12.108;2022-11-25T21:17:08;5.70;99.90
26063;DHT22;13837;48.562;12.108;2022-11-25T21:19:42;5.70;99.90
26063;DHT22;13837;48.562;12.108;2022-11-25T21:22:19;5.80;99.90
26063;DHT22;13837;48.562;12.108;2022-11-25T21:25:04;5.80;99.90
26063;DHT22;13837;48.562;12.108;2022-11-25T21:27:51;5.70;99.90
26063;DHT22;13837;48.562;12.108;2022-11-25T21:30:27;5.80;99.90
26063;DHT22;13837;48.562;12.108;2022-11-25T21:33:04;5.80;99.90
26063;DHT22;13837;48.562;12.108;2022-11-25T21:35:56;5.80;99.90
26063;DHT22;13837;48.562;12.108;2022-11-25T21:38:34;5.90;99.90
26063;DHT22;13837;48.562;12.108;2022-11-25T21:41:00;5.80;99.90
26063;DHT22;13837;48.562;12.108;2022-11-25T21:43:41;5.80;99.90
26063;DHT22;13837;48.562;12.108;2022-11-25T21:46:21;5.80;99.90
26063;DHT22;13837;48.562;12.108;2022-11-25T21:48:55;5.90;99.90
26063;DHT22;13837;48.562;12.108;2022-11-25T21:51:39;5.90;99.90
26063;DHT22;13837;48.562;12.108;2022-11-25T21:54:09;5.90;99.90
26063;DHT22;13837;48.562;12.108;2022-11-25T21:56:42;5.80;99.90
26063;DHT22;13837;48.562;12.108;2022-11-25T21:59:22;5.70;99.90
26063;DHT22;13837;48.562;12.108;2022-11-25T22:02:20;5.70;99.90
26063;DHT22;13837;48.562;12.108;2022-11-25T22:04:48;5.70;99.90
26063;DHT22;13837;48.562;12.108;2022-11-25T22:07:18;5.60;99.90
26063;DHT22;13837;48.562;12.108;2022-11-25T22:10:22;5.60;99.90
26063;DHT22;13837;48.562;12.108;2022-11-25T22:12:50;5.60;99.90
26063;DHT22;13837;48.562;12.108;2022-11-25T22:15:21;5.60;99.90
26063;DHT22;13837;48.562;12.108;2022-11-25T22:17:57;5.50;99.90
26063;DHT22;13837;48.562;12.108;2022-11-25T22:20:33;5.50;99.90
26063;DHT22;13837;48.562;12.108;2022-11-25T22:23:14;5.50;99.90
26063;DHT22;13837;48.562;12.108;2022-11-25T22:25:44;5.50;99.90
26063;DHT22;13837;48.562;12.108;2022-11-25T22:28:19;5.50;99.90
26063;DHT22;13837;48.562;12.108;2022-11-25T22:31:05;5.40;99.90
26063;DHT22;13837;48.562;12.108;2022-11-25T22:33:43;5.50;99.90
26063;DHT22;13837;48.562;12.108;2022-11-25T22:36:35;5.40;99.90
26063;DHT22;13837;48.562;12.108;2022-11-25T22:39:18;5.40;99.90
26063;DHT22;13837;48.562;12.108;2022-11-25T22:41:54;5.40;99.90
26063;DHT22;13837;48.562;12.108;2022-11-25T22:44:38;5.40;99.90
26063;DHT22;13837;48.562;12.108;2022-11-25T22:47:40;5.40;99.90
26063;DHT22;13837;48.562;12.108;2022-11-25T22:50:31;5.40;99.90
26063;DHT22;13837;48.562;12.108;2022-11-25T22:53:19;5.60;99.90
26063;DHT22;13837;48.562;12.108;2022-11-25T22:55:57;5.60;99.90
26063;DHT22;13837;48.562;12.108;2022-11-25T22:58:32;5.70;99.90
26063;DHT22;13837;48.562;12.108;2022-11-25T23:00:58;5.60;99.90
26063;DHT22;13837;48.562;12.108;2022-11-25T23:03:26;5.60;99.90
26063;DHT22;13837;48.562;12.108;2022-11-25T23:06:00;5.60;99.90
26063;DHT22;13837;48.562;12.108;2022-11-25T23:08:32;5.70;99.90
26063;DHT22;13837;48.562;12.108;2022-11-25T23:11:16;5.70;99.90
26063;DHT22;13837;48.562;12.108;2022-11-25T23:13:44;5.70;99.90
26063;DHT22;13837;48.562;12.108;2022-11-25T23:16:20;5.60;99.90
26063;DHT22;13837;48.562;12.108;2022-11-25T23:18:56;5.50;99.90
26063;DHT22;13837;48.562;12.108;2022-11-25T23:21:33;5.40;99.90
26063;DHT22;13837;48.562;12.108;2022-11-25T23:24:08;5.40;99.90
26063;DHT22;13837;48.562;12.108;2022-11-25T23:26:35;5.40;99.90
26063;DHT22;13837;48.562;12.108;2022-11-25T23:29:04;5.30;99.90
26063;DHT22;13837;48.562;12.108;2022-11-25T23:31:41;5.30;99.90
26063;DHT22;13837;48.562;12.108;2022-11-25T23:34:15;5.30;99.90
26063;DHT22;13837;48.562;12.108;2022-11-25T23:36:59;5.30;99.90
26063;DHT22;13837;48.562;12.108;2022-11-25T23:39:30;5.30;99.90
26063;DHT22;13837;48.562;12.108;2022-11-25T23:42:16;5.20;99.90
26063;DHT22;13837;48.562;12.108;2022-11-25T23:44:44;5.20;99.90
26063;DHT22;13837;48.562;12.108;2022-11-25T23:47:21;5.10;99.90
26063;DHT22;13837;48.562;12.108;2022-11-25T23:49:56;5.10;99.90
26063;DHT22;13837;48.562;12.108;2022-11-25T23:52:28;5.10;99.90
26063;DHT22;13837;48.562;12.108;2022-11-25T23:55:05;5.10;99.90
26063;DHT22;13837;48.562;12.108;2022-11-25T23:57:35;5.20;99.90
